Time;durP1;ratioP1;P1;durP2;ratioP2;P2;SDS_P1;SDS_P2;PMS_P1;PMS_P2;Temp;Humidity;BMP_temperature;BMP_pressure;BME280_temperature;BME280_humidity;BME280_pressure;Samples;Min_cycle;Max_cycle;Signal;HPM_P1;HPM_P2
2022/07/28 00:00:09;;;;;;;3.75;0.80;;;;;;;;;;5068067;28;20232;-15
2022/07/28 00:02:36;;;;;;;5.95;0.95;;;;;;;;;;5070609;28;20332;-15
2022/07/28 00:05:06;;;;;;;4.00;1.10;;;;;;;;;;5069277;28;20225;-15
2022/07/28 00:07:33;;;;;;;1.65;0.80;;;;;;;;;;5070433;28;20245;-15
2022/07/28 00:10:00;;;;;;;2.08;0.85;;;;;;;;;;5070452;28;21549;-15
2022/07/28 00:12:28;;;;;;;4.32;0.70;;;;;;;;;;5066910;28;20230;-15
2022/07/28 00:14:55;;;;;;;1.85;0.98;;;;;;;;;;5069996;28;20234;-15
2022/07/28 00:17:23;;;;;;;3.83;0.90;;;;;;;;;;5070326;28;20230;-15
2022/07/28 00:19:50;;;;;;;2.22;0.80;;;;;;;;;;5067244;28;20232;-15
2022/07/28 00:22:19;;;;;;;4.00;0.93;;;;;;;;;;5063470;28;20250;-15
2022/07/28 00:24:46;;;;;;;1.77;0.70;;;;;;;;;;5061189;28;20240;-15
2022/07/28 00:27:16;;;;;;;1.52;0.57;;;;;;;;;;5062256;28;20732;-15
2022/07/28 00:29:45;;;;;;;1.85;0.70;;;;;;;;;;5051754;28;20258;-15
2022/07/28 00:32:17;;;;;;;1.45;0.70;;;;;;;;;;5065666;28;20227;-15
2022/07/28 00:34:44;;;;;;;5.15;0.70;;;;;;;;;;5066667;28;20324;-15
2022/07/28 00:37:11;;;;;;;1.15;0.70;;;;;;;;;;5069577;28;20225;-15
2022/07/28 00:39:42;;;;;;;1.88;0.80;;;;;;;;;;5056368;28;20230;-15
2022/07/28 00:42:11;;;;;;;3.97;1.00;;;;;;;;;;5051781;28;20256;-15
2022/07/28 00:44:40;;;;;;;1.70;0.82;;;;;;;;;;5050828;28;20234;-15
2022/07/28 00:47:08;;;;;;;1.05;0.68;;;;;;;;;;5054332;28;21047;-15
2022/07/28 00:49:35;;;;;;;2.17;0.80;;;;;;;;;;5050592;28;20262;-15
2022/07/28 00:52:03;;;;;;;2.38;1.00;;;;;;;;;;5059109;28;20229;-15
2022/07/28 00:54:31;;;;;;;3.22;1.00;;;;;;;;;;5068697;28;20324;-15
2022/07/28 00:57:00;;;;;;;2.63;0.70;;;;;;;;;;5063763;28;20337;-15
2022/07/28 00:59:28;;;;;;;2.58;1.00;;;;;;;;;;5066980;28;20312;-15
2022/07/28 01:01:55;;;;;;;3.55;0.80;;;;;;;;;;5059911;28;20234;-15
2022/07/28 01:04:22;;;;;;;1.67;0.90;;;;;;;;;;5055572;28;20241;-15
2022/07/28 01:06:55;;;;;;;2.45;0.80;;;;;;;;;;5063599;28;20234;-15
2022/07/28 01:09:26;;;;;;;1.58;0.70;;;;;;;;;;5064925;28;20233;-15
2022/07/28 01:11:54;;;;;;;4.30;0.75;;;;;;;;;;5066228;28;20230;-15
2022/07/28 01:14:25;;;;;;;2.95;1.10;;;;;;;;;;5064201;28;20244;-15
2022/07/28 01:16:53;;;;;;;2.90;0.70;;;;;;;;;;5071196;28;20319;-15
2022/07/28 01:19:22;;;;;;;4.47;0.85;;;;;;;;;;5072477;28;20229;-15
2022/07/28 01:21:50;;;;;;;2.85;0.88;;;;;;;;;;5070347;28;20241;-15
2022/07/28 01:24:20;;;;;;;3.88;0.80;;;;;;;;;;5066536;28;20235;-15
2022/07/28 01:26:50;;;;;;;2.40;0.82;;;;;;;;;;5073336;28;20225;-15
2022/07/28 01:29:31;;;;;;;2.00;0.93;;;;;;;;;;5070472;28;20715;-15
2022/07/28 01:32:01;;;;;;;2.80;1.05;;;;;;;;;;5067200;28;20239;-15
2022/07/28 01:34:29;;;;;;;1.83;0.80;;;;;;;;;;5070569;28;20234;-15
2022/07/28 01:36:58;;;;;;;1.90;0.63;;;;;;;;;;5072955;28;21001;-15
2022/07/28 01:39:27;;;;;;;3.53;0.93;;;;;;;;;;5073226;28;20229;-15
2022/07/28 01:41:54;;;;;;;1.85;0.63;;;;;;;;;;5068206;28;20237;-15
2022/07/28 01:44:23;;;;;;;2.13;1.00;;;;;;;;;;5072015;28;20703;-15
2022/07/28 01:46:51;;;;;;;1.17;0.80;;;;;;;;;;5073127;28;20296;-15
2022/07/28 01:49:20;;;;;;;4.28;0.80;;;;;;;;;;5069800;28;20279;-15
2022/07/28 01:51:48;;;;;;;1.38;0.68;;;;;;;;;;5069998;28;20230;-15
2022/07/28 01:54:15;;;;;;;1.70;0.70;;;;;;;;;;5068048;28;20864;-15
2022/07/28 01:56:43;;;;;;;2.95;0.77;;;;;;;;;;5072548;28;20236;-15
2022/07/28 01:59:11;;;;;;;2.35;0.93;;;;;;;;;;5062212;28;20229;-15
2022/07/28 02:01:41;;;;;;;1.63;0.80;;;;;;;;;;5067068;28;20237;-15
2022/07/28 02:04:09;;;;;;;2.30;0.95;;;;;;;;;;5068756;28;20230;-15
2022/07/28 02:06:39;;;;;;;2.47;0.70;;;;;;;;;;5071910;28;20230;-15
2022/07/28 02:09:06;;;;;;;1.00;0.70;;;;;;;;;;5071708;28;20267;-15
2022/07/28 02:11:39;;;;;;;2.72;0.95;;;;;;;;;;5063898;28;20238;-15
2022/07/28 02:14:07;;;;;;;2.67;1.10;;;;;;;;;;5069671;28;20225;-15
2022/07/28 02:16:34;;;;;;;3.60;0.95;;;;;;;;;;5072382;28;20241;-15
2022/07/28 02:19:02;;;;;;;1.45;0.65;;;;;;;;;;5067073;28;20670;-15
2022/07/28 02:21:29;;;;;;;2.22;0.88;;;;;;;;;;5078971;22;20248;-15
2022/07/28 02:23:58;;;;;;;3.13;1.00;;;;;;;;;;5052587;28;20313;-17
2022/07/28 02:26:27;;;;;;;2.80;0.80;;;;;;;;;;5051810;28;20233;-17
2022/07/28 02:28:54;;;;;;;3.22;0.95;;;;;;;;;;5052543;28;20244;-17
2022/07/28 02:31:23;;;;;;;1.95;0.70;;;;;;;;;;5049252;28;20230;-17
2022/07/28 02:33:51;;;;;;;1.48;0.77;;;;;;;;;;5052343;28;20285;-17
2022/07/28 02:36:27;;;;;;;1.30;1.02;;;;;;;;;;5052699;28;20237;-17
2022/07/28 02:38:55;;;;;;;1.85;0.77;;;;;;;;;;5053480;28;20233;-17
2022/07/28 02:41:24;;;;;;;2.63;0.70;;;;;;;;;;5038612;28;20235;-17
2022/07/28 02:43:52;;;;;;;1.20;0.70;;;;;;;;;;5034298;28;20265;-17
2022/07/28 02:46:21;;;;;;;3.45;1.10;;;;;;;;;;5036147;28;20234;-17
2022/07/28 02:48:49;;;;;;;1.75;0.65;;;;;;;;;;5039846;28;20739;-17
2022/07/28 02:51:16;;;;;;;3.65;0.70;;;;;;;;;;5038438;28;20235;-17
2022/07/28 02:53:44;;;;;;;1.05;0.77;;;;;;;;;;5036753;28;20229;-17
2022/07/28 02:56:11;;;;;;;3.97;0.90;;;;;;;;;;5033679;28;20235;-17
2022/07/28 02:58:40;;;;;;;2.08;0.90;;;;;;;;;;5032296;28;20744;-17
2022/07/28 03:01:07;;;;;;;1.30;0.77;;;;;;;;;;5034034;28;20234;-17
2022/07/28 03:03:35;;;;;;;2.63;0.80;;;;;;;;;;5034445;28;20230;-17
2022/07/28 03:06:05;;;;;;;1.55;1.00;;;;;;;;;;5033292;28;20235;-17
2022/07/28 03:08:32;;;;;;;1.38;0.70;;;;;;;;;;5033142;28;20246;-17
2022/07/28 03:11:10;;;;;;;1.85;0.75;;;;;;;;;;5034419;28;20346;-17
2022/07/28 03:13:37;;;;;;;2.67;0.88;;;;;;;;;;5034881;28;20226;-17
2022/07/28 03:16:06;;;;;;;3.35;0.80;;;;;;;;;;5036247;28;20237;-17
2022/07/28 03:18:34;;;;;;;2.25;0.93;;;;;;;;;;5034400;28;20233;-17
2022/07/28 03:21:01;;;;;;;2.75;0.98;;;;;;;;;;5037833;28;21094;-17
2022/07/28 03:23:30;;;;;;;1.83;0.88;;;;;;;;;;5032331;28;20231;-16
2022/07/28 03:26:00;;;;;;;2.17;1.17;;;;;;;;;;5037004;28;20323;-16
2022/07/28 03:28:27;;;;;;;1.27;0.70;;;;;;;;;;5032389;28;20249;-16
2022/07/28 03:30:56;;;;;;;1.50;1.00;;;;;;;;;;5036732;28;21053;-16
2022/07/28 03:33:24;;;;;;;2.88;1.00;;;;;;;;;;5034310;28;21037;-16
2022/07/28 03:35:52;;;;;;;1.92;0.70;;;;;;;;;;5032902;28;20318;-16
2022/07/28 03:38:20;;;;;;;2.13;0.90;;;;;;;;;;5033112;28;20230;-17
2022/07/28 03:40:47;;;;;;;3.13;1.02;;;;;;;;;;5032089;28;20230;-17
2022/07/28 03:43:15;;;;;;;1.10;0.70;;;;;;;;;;5032758;28;20230;-17
2022/07/28 03:45:42;;;;;;;3.60;0.80;;;;;;;;;;5035108;28;20681;-16
2022/07/28 03:48:13;;;;;;;2.92;1.13;;;;;;;;;;5034797;28;20246;-17
2022/07/28 03:50:42;;;;;;;2.33;0.80;;;;;;;;;;5034216;28;20710;-17
2022/07/28 03:53:10;;;;;;;1.73;0.98;;;;;;;;;;5032365;28;20233;-16
2022/07/28 03:55:38;;;;;;;2.80;0.82;;;;;;;;;;5032325;28;20245;-17
2022/07/28 03:58:05;;;;;;;2.58;1.10;;;;;;;;;;5034463;28;20781;-17
2022/07/28 04:00:33;;;;;;;2.20;0.80;;;;;;;;;;5036579;28;20730;-16
2022/07/28 04:03:01;;;;;;;1.70;0.85;;;;;;;;;;5033784;28;20235;-17
2022/07/28 04:05:28;;;;;;;2.20;0.90;;;;;;;;;;5036121;28;20580;-17
2022/07/28 04:07:57;;;;;;;1.88;1.02;;;;;;;;;;5032570;28;20231;-17
2022/07/28 04:10:24;;;;;;;1.52;0.73;;;;;;;;;;5033754;28;21008;-17
2022/07/28 04:12:53;;;;;;;1.88;0.80;;;;;;;;;;5035994;28;20227;-17
2022/07/28 04:15:21;;;;;;;2.63;0.80;;;;;;;;;;5032665;28;20241;-17
2022/07/28 04:17:48;;;;;;;1.60;0.90;;;;;;;;;;5033373;28;20313;-16
2022/07/28 04:20:16;;;;;;;3.53;1.00;;;;;;;;;;5042965;28;20232;-17
2022/07/28 04:22:43;;;;;;;5.28;1.20;;;;;;;;;;5034494;28;20239;-17
2022/07/28 04:25:12;;;;;;;4.10;1.00;;;;;;;;;;5035440;28;20235;-17
2022/07/28 04:27:40;;;;;;;2.17;0.90;;;;;;;;;;5039183;28;20864;-17
2022/07/28 04:30:09;;;;;;;3.17;0.70;;;;;;;;;;5036169;28;20239;-17
2022/07/28 04:32:37;;;;;;;9.60;0.90;;;;;;;;;;5038520;28;20223;-16
2022/07/28 04:35:05;;;;;;;2.95;1.00;;;;;;;;;;5034064;28;20325;-17
2022/07/28 04:37:32;;;;;;;5.22;1.50;;;;;;;;;;5032839;28;20234;-17
2022/07/28 04:40:00;;;;;;;6.18;1.20;;;;;;;;;;5034773;28;20233;-17
2022/07/28 04:42:28;;;;;;;2.85;1.10;;;;;;;;;;5030817;28;20230;-17
2022/07/28 04:44:56;;;;;;;3.28;1.10;;;;;;;;;;5038993;28;20238;-17
2022/07/28 04:47:23;;;;;;;3.38;1.05;;;;;;;;;;5042033;28;20290;-17
2022/07/28 04:49:50;;;;;;;3.35;0.70;;;;;;;;;;5037641;28;20246;-17
2022/07/28 04:52:18;;;;;;;2.15;0.82;;;;;;;;;;5038348;28;20615;-16
2022/07/28 04:54:46;;;;;;;2.22;0.82;;;;;;;;;;5040494;28;20327;-17
2022/07/28 04:57:13;;;;;;;3.20;0.82;;;;;;;;;;5038901;28;20226;-17
2022/07/28 04:59:42;;;;;;;1.23;0.70;;;;;;;;;;5036711;28;20920;-17
2022/07/28 05:02:10;;;;;;;1.40;0.93;;;;;;;;;;5039698;28;20231;-16
2022/07/28 05:04:37;;;;;;;4.03;1.00;;;;;;;;;;5038069;28;21068;-17
2022/07/28 05:07:05;;;;;;;1.65;0.80;;;;;;;;;;5043733;28;21057;-17
2022/07/28 05:09:39;;;;;;;2.08;0.65;;;;;;;;;;5034213;28;20351;-16
2022/07/28 05:12:06;;;;;;;2.15;1.00;;;;;;;;;;5040107;28;20232;-16
2022/07/28 05:14:34;;;;;;;2.05;0.90;;;;;;;;;;5035942;28;20731;-17
2022/07/28 05:17:03;;;;;;;3.80;1.27;;;;;;;;;;5040219;28;21545;-17
2022/07/28 05:19:30;;;;;;;7.00;1.23;;;;;;;;;;5045328;28;20229;-16
2022/07/28 05:21:58;;;;;;;11.18;1.20;;;;;;;;;;5038438;28;20242;-17
2022/07/28 05:24:25;;;;;;;6.25;1.50;;;;;;;;;;5035243;28;20253;-17
2022/07/28 05:26:52;;;;;;;7.80;1.23;;;;;;;;;;5033261;28;20227;-16
2022/07/28 05:29:20;;;;;;;12.18;1.10;;;;;;;;;;5035276;28;20250;-17
2022/07/28 05:31:47;;;;;;;12.48;1.27;;;;;;;;;;5036975;28;20231;-16
2022/07/28 05:34:16;;;;;;;5.45;1.17;;;;;;;;;;5039629;28;20230;-16
2022/07/28 05:36:44;;;;;;;11.02;1.88;;;;;;;;;;5035744;28;20642;-17
2022/07/28 05:39:11;;;;;;;11.70;2.60;;;;;;;;;;5032903;28;20227;-17
2022/07/28 05:41:39;;;;;;;7.30;2.00;;;;;;;;;;5042766;28;20238;-17
2022/07/28 05:44:06;;;;;;;10.38;2.42;;;;;;;;;;5045430;28;20349;-17
2022/07/28 05:46:33;;;;;;;4.75;1.90;;;;;;;;;;5050116;28;20333;-17
2022/07/28 05:49:02;;;;;;;3.83;2.03;;;;;;;;;;5042236;28;20244;-17
2022/07/28 05:51:31;;;;;;;4.63;2.33;;;;;;;;;;5052923;28;20320;-17
2022/07/28 05:53:58;;;;;;;7.78;1.63;;;;;;;;;;5054273;28;20230;-16
2022/07/28 05:56:26;;;;;;;4.80;1.65;;;;;;;;;;5060419;28;20677;-17
2022/07/28 05:58:53;;;;;;;5.32;1.80;;;;;;;;;;5053714;28;20715;-17
2022/07/28 06:01:20;;;;;;;4.25;1.65;;;;;;;;;;5052167;28;20238;-17
2022/07/28 06:03:51;;;;;;;10.88;1.65;;;;;;;;;;5049277;28;20340;-17
2022/07/28 06:06:40;;;;;;;3.65;1.63;;;;;;;;;;5050089;28;20249;-16
2022/07/28 06:09:07;;;;;;;6.90;1.33;;;;;;;;;;5052072;28;20230;-17
2022/07/28 06:11:35;;;;;;;4.05;1.60;;;;;;;;;;5044180;28;21041;-17
2022/07/28 06:14:02;;;;;;;7.00;1.30;;;;;;;;;;5050163;28;20229;-17
2022/07/28 06:16:29;;;;;;;4.68;1.48;;;;;;;;;;5037185;28;21441;-17
2022/07/28 06:18:57;;;;;;;4.07;1.85;;;;;;;;;;5052476;28;20225;-16
2022/07/28 06:21:25;;;;;;;6.38;1.52;;;;;;;;;;5044592;28;20243;-17
2022/07/28 06:23:54;;;;;;;15.23;1.95;;;;;;;;;;5035972;28;20654;-17
2022/07/28 06:26:21;;;;;;;7.75;1.38;;;;;;;;;;5037701;28;20264;-16
2022/07/28 06:28:50;;;;;;;11.55;1.45;;;;;;;;;;5051174;28;20230;-16
2022/07/28 06:31:17;;;;;;;12.00;1.17;;;;;;;;;;5043716;28;20736;-16
2022/07/28 06:33:45;;;;;;;9.73;1.35;;;;;;;;;;5033918;28;20400;-16
2022/07/28 06:36:12;;;;;;;7.03;1.45;;;;;;;;;;5032543;28;20241;-17
2022/07/28 06:38:40;;;;;;;12.13;1.65;;;;;;;;;;5036728;28;20257;-17
2022/07/28 06:41:08;;;;;;;18.98;1.42;;;;;;;;;;5033321;28;20237;-17
2022/07/28 06:43:36;;;;;;;14.80;1.48;;;;;;;;;;5033505;28;20314;-17
2022/07/28 06:46:05;;;;;;;13.82;1.65;;;;;;;;;;5037440;28;20674;-17
2022/07/28 06:48:36;;;;;;;10.40;2.03;;;;;;;;;;5037906;28;21053;-17
2022/07/28 06:51:03;;;;;;;8.30;1.88;;;;;;;;;;5051041;28;20321;-16
2022/07/28 06:53:31;;;;;;;18.42;2.05;;;;;;;;;;5050886;28;20505;-17
2022/07/28 06:56:00;;;;;;;16.58;1.50;;;;;;;;;;5050925;28;20425;-16
2022/07/28 06:58:29;;;;;;;10.98;1.55;;;;;;;;;;5055149;28;20234;-17
2022/07/28 07:00:57;;;;;;;6.47;1.20;;;;;;;;;;5061420;28;20324;-17
2022/07/28 07:03:24;;;;;;;8.15;1.63;;;;;;;;;;5050395;28;20604;-17
2022/07/28 07:05:52;;;;;;;5.80;1.27;;;;;;;;;;5050764;28;20314;-17
2022/07/28 07:08:20;;;;;;;6.85;1.27;;;;;;;;;;5051718;28;20329;-17
2022/07/28 07:10:47;;;;;;;6.55;1.08;;;;;;;;;;5051245;28;20245;-17
2022/07/28 07:13:15;;;;;;;11.65;1.60;;;;;;;;;;5066584;28;20427;-17
2022/07/28 07:15:43;;;;;;;5.93;1.10;;;;;;;;;;5052433;28;20931;-17
2022/07/28 07:18:11;;;;;;;3.88;1.20;;;;;;;;;;5048172;28;20258;-17
2022/07/28 07:20:38;;;;;;;6.03;1.10;;;;;;;;;;5037337;28;20223;-17
2022/07/28 07:23:06;;;;;;;6.68;1.27;;;;;;;;;;5042246;28;20422;-17
2022/07/28 07:25:33;;;;;;;4.25;0.98;;;;;;;;;;5051424;28;20222;-17
2022/07/28 07:28:00;;;;;;;5.63;1.10;;;;;;;;;;5043650;28;20509;-17
2022/07/28 07:30:28;;;;;;;5.07;1.17;;;;;;;;;;5048002;28;20247;-17
2022/07/28 07:32:57;;;;;;;5.65;1.05;;;;;;;;;;5041384;28;20693;-17
2022/07/28 07:35:25;;;;;;;4.22;1.00;;;;;;;;;;5048181;28;20630;-17
2022/07/28 07:37:52;;;;;;;6.05;0.98;;;;;;;;;;5033904;28;20241;-16
2022/07/28 07:40:20;;;;;;;6.05;0.98;;;;;;;;;;5039772;28;20252;-16
2022/07/28 07:42:47;;;;;;;5.32;1.10;;;;;;;;;;5038437;28;20234;-16
2022/07/28 07:45:14;;;;;;;7.32;0.85;;;;;;;;;;5036931;28;20237;-16
2022/07/28 07:47:42;;;;;;;6.22;1.05;;;;;;;;;;5039648;28;20431;-17
2022/07/28 07:50:11;;;;;;;5.47;1.00;;;;;;;;;;5036813;28;22209;-17
2022/07/28 07:52:38;;;;;;;2.97;0.80;;;;;;;;;;5039410;28;20231;-17
2022/07/28 07:55:06;;;;;;;2.38;0.82;;;;;;;;;;5042550;28;20239;-17
2022/07/28 07:57:34;;;;;;;2.63;0.80;;;;;;;;;;5037856;28;20793;-17
2022/07/28 08:00:01;;;;;;;5.70;1.27;;;;;;;;;;5035396;28;20253;-17
2022/07/28 08:02:28;;;;;;;3.30;1.00;;;;;;;;;;5045119;28;20234;-17
2022/07/28 08:04:56;;;;;;;2.30;0.77;;;;;;;;;;5038845;28;20230;-17
2022/07/28 08:07:26;;;;;;;2.85;0.80;;;;;;;;;;5037002;28;20242;-17
2022/07/28 08:09:53;;;;;;;2.42;0.77;;;;;;;;;;5049585;28;20230;-17
2022/07/28 08:12:20;;;;;;;5.22;0.90;;;;;;;;;;5059817;28;20661;-17
2022/07/28 08:14:51;;;;;;;6.22;1.10;;;;;;;;;;5046935;28;20341;-16
2022/07/28 08:17:18;;;;;;;6.80;1.45;;;;;;;;;;5055512;28;20334;-17
2022/07/28 08:19:52;;;;;;;10.43;1.33;;;;;;;;;;5050243;28;20422;-16
2022/07/28 08:22:19;;;;;;;9.32;1.02;;;;;;;;;;5054081;28;20250;-16
2022/07/28 08:24:48;;;;;;;7.50;1.20;;;;;;;;;;5050552;28;20253;-16
2022/07/28 08:27:15;;;;;;;4.35;0.60;;;;;;;;;;5053251;28;20240;-16
2022/07/28 08:29:43;;;;;;;4.45;0.82;;;;;;;;;;5053600;28;20230;-16
2022/07/28 08:32:10;;;;;;;5.10;1.10;;;;;;;;;;5057765;28;20273;-17
2022/07/28 08:34:37;;;;;;;3.78;1.10;;;;;;;;;;5053808;28;20230;-16
2022/07/28 08:37:05;;;;;;;5.35;0.70;;;;;;;;;;5049223;28;20231;-17
2022/07/28 08:39:33;;;;;;;5.15;0.82;;;;;;;;;;5057737;28;20230;-16
2022/07/28 08:42:04;;;;;;;5.13;0.90;;;;;;;;;;5052618;28;20325;-17
2022/07/28 08:44:33;;;;;;;2.92;0.95;;;;;;;;;;5052102;28;20321;-16
2022/07/28 08:47:01;;;;;;;2.55;1.02;;;;;;;;;;5049750;28;20241;-16
2022/07/28 08:49:28;;;;;;;5.85;1.15;;;;;;;;;;5051736;28;20255;-16
2022/07/28 08:51:56;;;;;;;5.13;0.80;;;;;;;;;;5050256;28;20310;-16
2022/07/28 08:54:25;;;;;;;5.65;0.95;;;;;;;;;;5046330;28;20248;-18
2022/07/28 08:56:52;;;;;;;2.78;0.60;;;;;;;;;;5058681;28;20228;-16
2022/07/28 08:59:21;;;;;;;1.02;0.55;;;;;;;;;;5057013;28;20332;-16
2022/07/28 09:01:48;;;;;;;4.15;0.68;;;;;;;;;;5050466;28;21071;-16
2022/07/28 09:04:23;;;;;;;7.25;0.80;;;;;;;;;;5043898;28;20276;-16
2022/07/28 09:06:50;;;;;;;7.60;0.82;;;;;;;;;;5046443;28;20265;-17
2022/07/28 09:09:20;;;;;;;6.63;1.20;;;;;;;;;;5054160;28;20233;-17
2022/07/28 09:11:47;;;;;;;4.93;0.82;;;;;;;;;;5050667;28;20284;-16
2022/07/28 09:14:15;;;;;;;8.02;1.00;;;;;;;;;;5050182;28;20241;-16
2022/07/28 09:16:44;;;;;;;3.63;0.70;;;;;;;;;;5041894;28;20230;-16
2022/07/28 09:19:11;;;;;;;4.50;0.80;;;;;;;;;;5049927;28;20233;-16
2022/07/28 09:21:39;;;;;;;2.53;0.60;;;;;;;;;;5046180;28;20259;-16
2022/07/28 09:24:06;;;;;;;7.15;0.95;;;;;;;;;;5041868;28;20225;-16
2022/07/28 09:26:34;;;;;;;5.68;0.80;;;;;;;;;;5040256;28;20230;-16
2022/07/28 09:29:03;;;;;;;3.20;0.60;;;;;;;;;;5051009;28;21044;-16
2022/07/28 09:31:30;;;;;;;6.03;0.90;;;;;;;;;;5054952;28;20995;-16
2022/07/28 09:34:02;;;;;;;4.18;1.00;;;;;;;;;;5053952;28;20235;-16
2022/07/28 09:36:30;;;;;;;6.20;0.82;;;;;;;;;;5050732;28;20232;-16
2022/07/28 09:38:57;;;;;;;1.25;0.80;;;;;;;;;;5052271;28;20996;-16
2022/07/28 09:41:25;;;;;;;4.00;0.60;;;;;;;;;;5052099;28;20248;-16
2022/07/28 09:43:52;;;;;;;3.35;0.70;;;;;;;;;;5057517;28;20232;-16
2022/07/28 09:46:23;;;;;;;6.15;0.65;;;;;;;;;;5051229;28;20230;-16
2022/07/28 09:48:52;;;;;;;3.33;0.80;;;;;;;;;;5053284;28;20399;-16
2022/07/28 09:51:22;;;;;;;2.35;0.85;;;;;;;;;;5052006;28;20234;-16
2022/07/28 09:53:50;;;;;;;2.97;0.73;;;;;;;;;;5053641;28;20317;-16
2022/07/28 09:56:17;;;;;;;1.90;0.68;;;;;;;;;;5052252;28;20321;-16
2022/07/28 09:58:52;;;;;;;1.98;0.63;;;;;;;;;;5052260;28;20229;-16
2022/07/28 10:01:21;;;;;;;4.32;0.60;;;;;;;;;;5049515;28;20329;-16
2022/07/28 10:03:51;;;;;;;2.58;0.75;;;;;;;;;;5051629;28;20709;-16
2022/07/28 10:06:25;;;;;;;3.50;0.50;;;;;;;;;;5052795;28;20312;-16
2022/07/28 10:08:52;;;;;;;2.70;0.60;;;;;;;;;;5052513;28;20234;-16
2022/07/28 10:11:20;;;;;;;2.15;0.50;;;;;;;;;;5061199;28;20734;-16
2022/07/28 10:13:51;;;;;;;2.55;0.77;;;;;;;;;;5053128;28;20237;-16
2022/07/28 10:16:19;;;;;;;4.82;0.80;;;;;;;;;;5053971;28;20234;-16
2022/07/28 10:18:47;;;;;;;1.08;0.60;;;;;;;;;;5051663;28;20226;-16
2022/07/28 10:21:15;;;;;;;2.88;0.70;;;;;;;;;;5052003;28;20411;-16
2022/07/28 10:23:46;;;;;;;2.30;0.60;;;;;;;;;;5046638;28;20250;-16
2022/07/28 10:26:13;;;;;;;2.05;0.60;;;;;;;;;;5052578;28;20230;-16
2022/07/28 10:28:42;;;;;;;3.15;0.90;;;;;;;;;;5052382;28;20701;-16
2022/07/28 10:31:09;;;;;;;2.33;0.70;;;;;;;;;;5051553;28;20230;-16
2022/07/28 10:33:38;;;;;;;1.20;0.65;;;;;;;;;;5052534;28;20238;-16
2022/07/28 10:36:06;;;;;;;1.63;0.43;;;;;;;;;;5052788;28;20229;-16
2022/07/28 10:38:34;;;;;;;5.05;0.80;;;;;;;;;;5058821;28;20232;-16
2022/07/28 10:41:03;;;;;;;2.08;0.77;;;;;;;;;;5059195;28;20234;-16
2022/07/28 10:43:30;;;;;;;2.53;0.60;;;;;;;;;;5052144;28;20762;-16
2022/07/28 10:45:58;;;;;;;2.00;0.70;;;;;;;;;;5051756;28;20979;-16
2022/07/28 10:48:37;;;;;;;2.20;0.60;;;;;;;;;;5050254;28;20709;-16
2022/07/28 10:51:05;;;;;;;2.80;0.65;;;;;;;;;;5052121;28;20268;-16
2022/07/28 10:53:33;;;;;;;2.20;0.73;;;;;;;;;;5055218;28;20332;-16
2022/07/28 10:56:05;;;;;;;3.50;0.65;;;;;;;;;;5061911;28;20449;-16
2022/07/28 10:58:34;;;;;;;1.63;0.60;;;;;;;;;;5052565;28;20381;-16
2022/07/28 11:01:02;;;;;;;2.53;0.65;;;;;;;;;;5060061;28;20221;-16
2022/07/28 11:03:36;;;;;;;4.68;0.68;;;;;;;;;;5054625;28;20967;-16
2022/07/28 11:06:34;;;;;;;3.72;0.95;;;;;;;;;;5060679;28;20700;-16
2022/07/28 11:09:17;;;;;;;1.55;0.47;;;;;;;;;;4990570;28;20239;-17
2022/07/28 11:11:48;;;;;;;2.15;0.60;;;;;;;;;;5057157;28;20241;-16
2022/07/28 11:14:34;;;;;;;1.30;0.50;;;;;;;;;;5047396;28;20315;-16
2022/07/28 11:17:21;;;;;;;0.77;0.60;;;;;;;;;;5054562;28;20234;-16
2022/07/28 11:19:54;;;;;;;1.38;0.60;;;;;;;;;;5061460;28;20321;-16
2022/07/28 11:22:42;;;;;;;1.17;0.65;;;;;;;;;;5050624;28;20246;-16
2022/07/28 11:25:16;;;;;;;1.63;0.60;;;;;;;;;;5051303;28;20262;-16
2022/07/28 11:28:07;;;;;;;4.43;0.80;;;;;;;;;;5051581;28;20241;-16
2022/07/28 11:30:50;;;;;;;1.40;0.50;;;;;;;;;;5059620;28;20229;-16
2022/07/28 11:33:19;;;;;;;1.25;0.40;;;;;;;;;;5066374;28;20242;-16
2022/07/28 11:35:56;;;;;;;1.98;0.60;;;;;;;;;;5056949;28;20237;-16
2022/07/28 11:38:23;;;;;;;3.50;0.60;;;;;;;;;;5051247;28;20240;-16
2022/07/28 11:40:51;;;;;;;1.00;0.40;;;;;;;;;;5050876;28;20230;-16
2022/07/28 11:43:30;;;;;;;1.20;0.40;;;;;;;;;;5065511;28;20229;-16
2022/07/28 11:46:30;;;;;;;1.40;0.40;;;;;;;;;;5051692;28;20702;-16
2022/07/28 11:49:13;;;;;;;1.50;0.57;;;;;;;;;;5039642;28;20351;-16
2022/07/28 11:51:58;;;;;;;1.85;0.50;;;;;;;;;;5051277;28;20292;-16
2022/07/28 11:54:25;;;;;;;1.75;0.52;;;;;;;;;;5050556;28;20234;-17
2022/07/28 11:56:56;;;;;;;1.58;0.63;;;;;;;;;;5051240;28;20226;-16
2022/07/28 11:59:25;;;;;;;2.70;0.70;;;;;;;;;;5049979;28;20234;-16
2022/07/28 12:02:03;;;;;;;2.22;0.70;;;;;;;;;;5063193;28;20258;-16
2022/07/28 12:04:31;;;;;;;2.58;0.70;;;;;;;;;;5050915;28;20307;-16
2022/07/28 12:07:00;;;;;;;2.25;0.60;;;;;;;;;;5053093;28;20317;-16
2022/07/28 12:09:28;;;;;;;2.05;0.50;;;;;;;;;;5059127;28;20234;-16
2022/07/28 12:12:09;;;;;;;2.63;0.70;;;;;;;;;;5050873;28;20237;-16
2022/07/28 12:14:42;;;;;;;1.40;0.55;;;;;;;;;;5050840;28;20261;-16
2022/07/28 12:17:09;;;;;;;3.58;0.60;;;;;;;;;;5053814;28;20325;-16
2022/07/28 12:19:38;;;;;;;2.08;0.52;;;;;;;;;;5065668;28;21037;-17
2022/07/28 12:22:09;;;;;;;3.42;0.50;;;;;;;;;;5050320;28;20265;-16
2022/07/28 12:24:42;;;;;;;1.90;0.57;;;;;;;;;;5058786;28;21091;-16
2022/07/28 12:27:12;;;;;;;1.98;0.50;;;;;;;;;;5056681;28;21089;-16
2022/07/28 12:29:42;;;;;;;1.90;0.63;;;;;;;;;;5064024;28;20276;-16
2022/07/28 12:32:14;;;;;;;2.95;0.68;;;;;;;;;;5049099;28;20234;-16
2022/07/28 12:34:43;;;;;;;1.25;0.60;;;;;;;;;;5050346;28;20245;-16
2022/07/28 12:37:11;;;;;;;3.40;0.63;;;;;;;;;;5050723;28;20393;-16
2022/07/28 12:39:40;;;;;;;0.93;0.50;;;;;;;;;;5050640;28;20681;-16
2022/07/28 12:42:09;;;;;;;2.25;0.60;;;;;;;;;;5050073;28;20234;-16
2022/07/28 12:44:37;;;;;;;2.72;0.70;;;;;;;;;;5064595;28;20221;-16
2022/07/28 12:47:06;;;;;;;3.65;0.70;;;;;;;;;;5063780;28;20325;-16
2022/07/28 12:49:35;;;;;;;3.17;0.50;;;;;;;;;;5057307;28;20316;-16
2022/07/28 12:52:15;;;;;;;1.77;0.70;;;;;;;;;;5050505;28;20233;-16
2022/07/28 12:54:43;;;;;;;2.58;0.60;;;;;;;;;;5044000;28;20700;-16
2022/07/28 12:57:36;;;;;;;1.35;0.68;;;;;;;;;;5056887;28;20229;-16
2022/07/28 13:00:05;;;;;;;2.35;0.68;;;;;;;;;;5068760;28;20344;-16
2022/07/28 13:02:36;;;;;;;0.70;0.50;;;;;;;;;;5038519;28;20776;-16
2022/07/28 13:05:06;;;;;;;2.10;0.73;;;;;;;;;;5050536;28;21055;-16
2022/07/28 13:07:33;;;;;;;2.05;0.60;;;;;;;;;;5063404;28;20238;-17
2022/07/28 13:10:02;;;;;;;1.98;0.52;;;;;;;;;;5063739;28;21059;-17
2022/07/28 13:12:30;;;;;;;2.10;0.60;;;;;;;;;;5052584;28;20230;-17
2022/07/28 13:14:58;;;;;;;1.52;0.65;;;;;;;;;;5053078;28;20238;-16
2022/07/28 13:17:25;;;;;;;2.92;0.60;;;;;;;;;;5053528;28;20226;-16
2022/07/28 13:20:03;;;;;;;2.25;0.57;;;;;;;;;;5053597;28;20240;-16
2022/07/28 13:22:32;;;;;;;3.60;0.70;;;;;;;;;;5066823;28;20241;-16
2022/07/28 13:24:59;;;;;;;1.77;0.75;;;;;;;;;;5053040;28;20226;-16
2022/07/28 13:27:27;;;;;;;1.95;0.55;;;;;;;;;;5052794;28;20325;-16
2022/07/28 13:29:55;;;;;;;1.33;0.82;;;;;;;;;;5053404;28;20301;-16
2022/07/28 13:32:22;;;;;;;1.10;0.70;;;;;;;;;;5060932;28;20620;-17
2022/07/28 13:34:50;;;;;;;2.03;0.70;;;;;;;;;;5053146;28;20297;-16
2022/07/28 13:37:19;;;;;;;1.10;0.60;;;;;;;;;;5053078;28;20241;-16
2022/07/28 13:39:48;;;;;;;1.75;0.60;;;;;;;;;;5055284;28;20258;-16
2022/07/28 13:42:21;;;;;;;1.95;0.70;;;;;;;;;;5063810;28;20230;-16
2022/07/28 13:44:50;;;;;;;1.15;0.50;;;;;;;;;;5065248;28;20261;-16
2022/07/28 13:47:17;;;;;;;2.00;0.73;;;;;;;;;;5061971;28;20234;-16
2022/07/28 13:49:45;;;;;;;1.35;0.60;;;;;;;;;;5067381;28;20229;-16
2022/07/28 13:52:18;;;;;;;0.73;0.45;;;;;;;;;;5052826;28;20234;-16
2022/07/28 13:55:01;;;;;;;1.50;0.60;;;;;;;;;;5052943;28;21023;-16
2022/07/28 13:57:30;;;;;;;2.75;0.73;;;;;;;;;;5053149;28;20285;-17
2022/07/28 14:00:05;;;;;;;1.42;0.63;;;;;;;;;;5053295;28;20226;-16
2022/07/28 14:02:34;;;;;;;1.10;0.60;;;;;;;;;;5065017;28;20279;-16
2022/07/28 14:05:01;;;;;;;1.83;0.70;;;;;;;;;;5053196;28;20582;-16
2022/07/28 14:07:28;;;;;;;1.85;0.73;;;;;;;;;;5072871;28;20705;-16
2022/07/28 14:09:56;;;;;;;1.52;0.73;;;;;;;;;;5059428;28;20986;-16
2022/07/28 14:12:27;;;;;;;2.80;0.90;;;;;;;;;;5057674;28;20264;-16
2022/07/28 14:14:54;;;;;;;1.20;0.65;;;;;;;;;;5068332;28;20238;-16
2022/07/28 14:17:22;;;;;;;1.80;0.50;;;;;;;;;;5053666;28;20226;-16
2022/07/28 14:20:10;;;;;;;1.75;0.57;;;;;;;;;;5052335;28;20714;-16
2022/07/28 14:22:37;;;;;;;2.00;0.55;;;;;;;;;;5051826;28;20249;-16
2022/07/28 14:25:05;;;;;;;1.98;0.75;;;;;;;;;;5052710;28;21003;-17
2022/07/28 14:27:34;;;;;;;2.22;0.77;;;;;;;;;;5052410;28;20230;-17
2022/07/28 14:30:02;;;;;;;2.05;0.80;;;;;;;;;;5052462;28;20321;-16
2022/07/28 14:32:30;;;;;;;1.60;0.60;;;;;;;;;;5044494;28;20230;-17
2022/07/28 14:34:58;;;;;;;2.38;0.50;;;;;;;;;;5052460;28;20242;-16
2022/07/28 14:37:25;;;;;;;1.15;0.60;;;;;;;;;;5051864;28;20230;-16
2022/07/28 14:39:56;;;;;;;1.63;0.50;;;;;;;;;;5066477;28;20226;-16
2022/07/28 14:42:25;;;;;;;1.30;0.60;;;;;;;;;;5051884;28;20321;-16
2022/07/28 14:44:53;;;;;;;1.65;0.50;;;;;;;;;;5051994;28;20237;-16
2022/07/28 14:47:21;;;;;;;1.88;0.70;;;;;;;;;;5061158;28;20673;-16
2022/07/28 14:50:09;;;;;;;1.40;0.73;;;;;;;;;;5054423;28;20234;-16
2022/07/28 14:52:37;;;;;;;2.90;0.88;;;;;;;;;;5051976;28;20226;-16
2022/07/28 14:55:04;;;;;;;1.73;0.60;;;;;;;;;;5053694;28;20242;-16